Greeneville, TN

8:51 PM EDT on May 29, 2015 (GMT -0400)
Saint James | | Change Station
CLOSE
Current Station
Personal Weather Station
Location: Greeneville, TN
Elevation: 1414 ft
Nearby Weather Stations

Elev 1414 ft 36.05 °N, 82.96 °W | Updated 1 minute ago

Partly Cloudy
Partly Cloudy
72.3 °F
Feels Like 72 °F
N
0.0
Wind Variable Wind from SSE

Today
High -- | Low -- °F
--% Chance of Precip.
Yesterday
High -- | Low -- °F
Precip. -- in
6:16 AM 8:41 PM
Waxing Gibbous, 87% visible
Pressure 30.12 in
Visibility 10.0 miles
Clouds Few 5500 ft
Scattered Clouds 7500 ft
Scattered Clouds 12000 ft
Heat Index 72 °F
Dew Point 67 °F
Humidity 83%
Rainfall 0.05 in
Snow Depth Not available.
UV 0 out of 12
Pollen 6.50 out of 12
Air Quality Not available.
Flu Activity Sporadic
METAR KTRI 292353Z 00000KT 10SM FEW055 SCT075 SCT120 22/18 A3018 RMK AO2 TSE29 SLP199 60001 T02220178 10300 20217 53001

More Conditions Fewer Conditions

Pressure 30.12 in
Visibility 10.0 miles
Clouds Few 5500 ft
Scattered Clouds 7500 ft
Scattered Clouds 12000 ft
Heat Index 72 °F
Dew Point 67 °F
Humidity 83%
Rainfall 0.05 in
Snow Depth Not available.
UV 0 out of 12
Pollen 6.50 out of 12
Air Quality Not available.
Flu Activity Sporadic
METAR KTRI 292353Z 00000KT 10SM FEW055 SCT075 SCT120 22/18 A3018 RMK AO2 TSE29 SLP199 60001 T02220178 10300 20217 53001

More Conditions Fewer Conditions

10-Day Weather Forecast

Almanac

Astronomy

May. 29, 2015 Rise Set
Actual Time
Civil Twilight
Nautical Twilight
Astronomical Twilight
Moon
Length of Visible Light
Length of Day
Tomorrow will be .
, % of the Moon is Illuminated

Today's Extremes

State Highs State Lows

Community

WunderPhotos

Upload Photos

1,825,411 photos uploaded!

WunderBlogs® & News

Nearby

Air Quality

  Air Quality AQ Index Pollutant
Not available.

Snow Depth

Station Depth Elevation

Earthquake Activity

City Distance Mag. Time & Date
Minimum magnitude displayed is 2.5.

Coastal Water Temperatures

Place Temperature

Stations

Nearby Weather Stations

Station Location Temp. Windchill Dew Point Humidity Wind Precip. Elev Updated Type